sensor_id;sensor_type;location;lat;lon;timestamp;P1;durP1;ratioP1;P2;durP2;ratioP2
16577;SDS011;8401;52.528;13.340;2023-07-02T00:01:45;3.40;;;2.37;;
16577;SDS011;8401;52.528;13.340;2023-07-02T00:04:11;2.23;;;1.93;;
16577;SDS011;8401;52.528;13.340;2023-07-02T00:06:41;4.13;;;2.00;;
16577;SDS011;8401;52.528;13.340;2023-07-02T00:09:10;2.17;;;1.97;;
16577;SDS011;8401;52.528;13.340;2023-07-02T00:11:39;2.07;;;1.87;;
16577;SDS011;8401;52.528;13.340;2023-07-02T00:14:07;2.43;;;1.87;;
16577;SDS011;8401;52.528;13.340;2023-07-02T00:16:33;2.00;;;1.80;;
16577;SDS011;8401;52.528;13.340;2023-07-02T00:19:00;2.43;;;2.13;;
16577;SDS011;8401;52.528;13.340;2023-07-02T00:21:26;2.20;;;2.10;;
16577;SDS011;8401;52.528;13.340;2023-07-02T00:23:52;2.83;;;2.40;;
16577;SDS011;8401;52.528;13.340;2023-07-02T00:26:24;2.53;;;2.27;;
16577;SDS011;8401;52.528;13.340;2023-07-02T00:28:51;4.40;;;2.23;;
16577;SDS011;8401;52.528;13.340;2023-07-02T00:31:18;4.77;;;2.90;;
16577;SDS011;8401;52.528;13.340;2023-07-02T00:33:43;3.10;;;2.80;;
16577;SDS011;8401;52.528;13.340;2023-07-02T00:36:09;2.50;;;2.30;;
16577;SDS011;8401;52.528;13.340;2023-07-02T00:38:39;3.60;;;2.70;;
16577;SDS011;8401;52.528;13.340;2023-07-02T00:41:09;3.13;;;2.60;;
16577;SDS011;8401;52.528;13.340;2023-07-02T00:43:36;2.77;;;2.57;;
16577;SDS011;8401;52.528;13.340;2023-07-02T00:46:04;2.90;;;2.60;;
16577;SDS011;8401;52.528;13.340;2023-07-02T00:48:30;3.03;;;2.67;;
16577;SDS011;8401;52.528;13.340;2023-07-02T00:50:57;2.87;;;2.67;;
16577;SDS011;8401;52.528;13.340;2023-07-02T00:53:22;4.07;;;2.83;;
16577;SDS011;8401;52.528;13.340;2023-07-02T00:55:48;3.77;;;2.90;;
16577;SDS011;8401;52.528;13.340;2023-07-02T00:58:13;3.17;;;2.80;;
16577;SDS011;8401;52.528;13.340;2023-07-02T01:00:40;3.10;;;2.90;;
16577;SDS011;8401;52.528;13.340;2023-07-02T01:03:07;4.33;;;3.10;;
16577;SDS011;8401;52.528;13.340;2023-07-02T01:05:33;5.03;;;3.00;;
16577;SDS011;8401;52.528;13.340;2023-07-02T01:08:02;5.63;;;3.27;;
16577;SDS011;8401;52.528;13.340;2023-07-02T01:10:28;4.27;;;3.87;;
16577;SDS011;8401;52.528;13.340;2023-07-02T01:12:56;4.57;;;3.90;;
16577;SDS011;8401;52.528;13.340;2023-07-02T01:15:25;4.43;;;4.03;;
16577;SDS011;8401;52.528;13.340;2023-07-02T01:17:51;6.13;;;4.40;;
16577;SDS011;8401;52.528;13.340;2023-07-02T01:20:17;5.20;;;4.50;;
16577;SDS011;8401;52.528;13.340;2023-07-02T01:22:45;5.60;;;4.57;;
16577;SDS011;8401;52.528;13.340;2023-07-02T01:25:14;5.77;;;4.50;;
16577;SDS011;8401;52.528;13.340;2023-07-02T01:27:40;6.83;;;5.20;;
16577;SDS011;8401;52.528;13.340;2023-07-02T01:30:06;9.17;;;6.97;;
16577;SDS011;8401;52.528;13.340;2023-07-02T01:32:33;5.60;;;4.87;;
16577;SDS011;8401;52.528;13.340;2023-07-02T01:34:59;6.40;;;4.87;;
16577;SDS011;8401;52.528;13.340;2023-07-02T01:37:25;6.97;;;4.90;;
16577;SDS011;8401;52.528;13.340;2023-07-02T01:39:51;6.27;;;5.00;;
16577;SDS011;8401;52.528;13.340;2023-07-02T01:42:17;6.20;;;4.77;;
16577;SDS011;8401;52.528;13.340;2023-07-02T01:44:44;6.23;;;4.83;;
16577;SDS011;8401;52.528;13.340;2023-07-02T01:47:11;6.90;;;4.60;;
16577;SDS011;8401;52.528;13.340;2023-07-02T01:49:37;6.30;;;5.60;;
16577;SDS011;8401;52.528;13.340;2023-07-02T01:52:03;6.83;;;5.30;;
16577;SDS011;8401;52.528;13.340;2023-07-02T01:54:29;6.03;;;5.40;;
16577;SDS011;8401;52.528;13.340;2023-07-02T01:56:57;6.10;;;5.40;;
16577;SDS011;8401;52.528;13.340;2023-07-02T01:59:23;6.33;;;5.73;;
16577;SDS011;8401;52.528;13.340;2023-07-02T02:01:49;6.97;;;6.27;;
16577;SDS011;8401;52.528;13.340;2023-07-02T02:04:15;6.73;;;6.13;;
16577;SDS011;8401;52.528;13.340;2023-07-02T02:06:40;6.90;;;6.30;;
16577;SDS011;8401;52.528;13.340;2023-07-02T02:09:07;10.27;;;6.13;;
16577;SDS011;8401;52.528;13.340;2023-07-02T02:11:34;6.47;;;5.63;;
16577;SDS011;8401;52.528;13.340;2023-07-02T02:14:03;9.13;;;6.73;;
16577;SDS011;8401;52.528;13.340;2023-07-02T02:16:28;7.10;;;6.50;;
16577;SDS011;8401;52.528;13.340;2023-07-02T02:18:54;7.00;;;6.30;;
16577;SDS011;8401;52.528;13.340;2023-07-02T02:21:20;7.00;;;6.30;;
16577;SDS011;8401;52.528;13.340;2023-07-02T02:23:47;7.90;;;6.37;;
16577;SDS011;8401;52.528;13.340;2023-07-02T02:26:13;7.23;;;5.77;;
16577;SDS011;8401;52.528;13.340;2023-07-02T02:28:39;9.73;;;6.13;;
16577;SDS011;8401;52.528;13.340;2023-07-02T02:31:05;7.40;;;6.10;;
16577;SDS011;8401;52.528;13.340;2023-07-02T02:33:32;6.43;;;5.77;;
16577;SDS011;8401;52.528;13.340;2023-07-02T02:35:58;8.10;;;5.93;;
16577;SDS011;8401;52.528;13.340;2023-07-02T02:38:23;10.50;;;5.10;;
16577;SDS011;8401;52.528;13.340;2023-07-02T02:40:49;6.53;;;5.50;;
16577;SDS011;8401;52.528;13.340;2023-07-02T02:43:15;6.63;;;5.27;;
16577;SDS011;8401;52.528;13.340;2023-07-02T02:45:42;8.47;;;5.63;;
16577;SDS011;8401;52.528;13.340;2023-07-02T02:48:07;7.53;;;5.50;;
16577;SDS011;8401;52.528;13.340;2023-07-02T02:50:33;5.60;;;5.07;;
16577;SDS011;8401;52.528;13.340;2023-07-02T02:52:59;6.07;;;5.03;;
16577;SDS011;8401;52.528;13.340;2023-07-02T02:55:24;7.77;;;5.30;;
16577;SDS011;8401;52.528;13.340;2023-07-02T02:57:51;5.90;;;5.30;;
16577;SDS011;8401;52.528;13.340;2023-07-02T03:00:16;6.60;;;4.70;;
16577;SDS011;8401;52.528;13.340;2023-07-02T03:02:42;5.90;;;4.43;;
16577;SDS011;8401;52.528;13.340;2023-07-02T03:05:08;6.23;;;5.63;;
16577;SDS011;8401;52.528;13.340;2023-07-02T03:07:34;6.00;;;5.47;;
16577;SDS011;8401;52.528;13.340;2023-07-02T03:10:00;5.63;;;5.00;;
16577;SDS011;8401;52.528;13.340;2023-07-02T03:12:26;5.77;;;5.20;;
16577;SDS011;8401;52.528;13.340;2023-07-02T03:14:52;6.17;;;5.40;;
16577;SDS011;8401;52.528;13.340;2023-07-02T03:17:20;5.83;;;4.90;;
16577;SDS011;8401;52.528;13.340;2023-07-02T03:19:48;5.73;;;4.80;;
16577;SDS011;8401;52.528;13.340;2023-07-02T03:22:14;5.63;;;5.00;;
16577;SDS011;8401;52.528;13.340;2023-07-02T03:24:39;5.83;;;4.70;;
16577;SDS011;8401;52.528;13.340;2023-07-02T03:27:05;6.43;;;4.70;;
16577;SDS011;8401;52.528;13.340;2023-07-02T03:29:31;6.60;;;4.80;;
16577;SDS011;8401;52.528;13.340;2023-07-02T03:31:57;6.70;;;4.53;;
16577;SDS011;8401;52.528;13.340;2023-07-02T03:34:23;4.50;;;4.10;;
16577;SDS011;8401;52.528;13.340;2023-07-02T03:36:49;4.90;;;4.47;;
16577;SDS011;8401;52.528;13.340;2023-07-02T03:39:15;5.37;;;4.37;;
16577;SDS011;8401;52.528;13.340;2023-07-02T03:41:41;5.87;;;4.13;;
16577;SDS011;8401;52.528;13.340;2023-07-02T03:44:07;6.37;;;4.37;;
16577;SDS011;8401;52.528;13.340;2023-07-02T03:46:32;7.27;;;4.47;;
16577;SDS011;8401;52.528;13.340;2023-07-02T03:48:58;4.57;;;4.17;;
16577;SDS011;8401;52.528;13.340;2023-07-02T03:51:24;6.40;;;4.13;;
16577;SDS011;8401;52.528;13.340;2023-07-02T03:53:49;5.37;;;4.20;;
16577;SDS011;8401;52.528;13.340;2023-07-02T03:56:15;4.73;;;3.87;;
16577;SDS011;8401;52.528;13.340;2023-07-02T03:58:43;4.93;;;3.83;;
16577;SDS011;8401;52.528;13.340;2023-07-02T04:01:09;3.67;;;3.33;;
16577;SDS011;8401;52.528;13.340;2023-07-02T04:03:35;5.20;;;3.50;;
16577;SDS011;8401;52.528;13.340;2023-07-02T04:06:01;5.77;;;3.83;;
16577;SDS011;8401;52.528;13.340;2023-07-02T04:08:26;4.23;;;3.83;;
16577;SDS011;8401;52.528;13.340;2023-07-02T04:10:53;5.30;;;3.97;;
16577;SDS011;8401;52.528;13.340;2023-07-02T04:13:19;6.37;;;3.57;;
16577;SDS011;8401;52.528;13.340;2023-07-02T04:15:45;4.63;;;3.67;;
16577;SDS011;8401;52.528;13.340;2023-07-02T04:18:11;7.23;;;4.03;;
16577;SDS011;8401;52.528;13.340;2023-07-02T04:20:36;5.07;;;3.83;;
16577;SDS011;8401;52.528;13.340;2023-07-02T04:23:07;4.60;;;3.03;;
16577;SDS011;8401;52.528;13.340;2023-07-02T04:25:33;3.63;;;3.30;;
16577;SDS011;8401;52.528;13.340;2023-07-02T04:27:59;5.53;;;4.00;;
16577;SDS011;8401;52.528;13.340;2023-07-02T04:30:25;4.70;;;3.80;;
16577;SDS011;8401;52.528;13.340;2023-07-02T04:32:51;8.13;;;4.40;;
16577;SDS011;8401;52.528;13.340;2023-07-02T04:35:17;4.67;;;3.37;;
16577;SDS011;8401;52.528;13.340;2023-07-02T04:37:43;4.77;;;3.80;;
16577;SDS011;8401;52.528;13.340;2023-07-02T04:40:09;6.50;;;3.70;;
16577;SDS011;8401;52.528;13.340;2023-07-02T04:42:38;6.80;;;3.40;;
16577;SDS011;8401;52.528;13.340;2023-07-02T04:45:07;4.27;;;3.60;;
16577;SDS011;8401;52.528;13.340;2023-07-02T04:47:33;5.10;;;3.50;;
16577;SDS011;8401;52.528;13.340;2023-07-02T04:49:59;5.30;;;3.70;;
16577;SDS011;8401;52.528;13.340;2023-07-02T04:52:26;4.40;;;3.40;;
16577;SDS011;8401;52.528;13.340;2023-07-02T04:54:51;4.17;;;3.23;;
16577;SDS011;8401;52.528;13.340;2023-07-02T04:57:17;5.60;;;3.50;;
16577;SDS011;8401;52.528;13.340;2023-07-02T04:59:43;4.13;;;3.77;;
16577;SDS011;8401;52.528;13.340;2023-07-02T05:02:09;5.37;;;3.77;;
16577;SDS011;8401;52.528;13.340;2023-07-02T05:04:35;3.70;;;3.30;;
16577;SDS011;8401;52.528;13.340;2023-07-02T05:07:02;4.10;;;3.10;;
16577;SDS011;8401;52.528;13.340;2023-07-02T05:09:29;5.50;;;3.13;;
16577;SDS011;8401;52.528;13.340;2023-07-02T05:11:57;4.47;;;3.47;;
16577;SDS011;8401;52.528;13.340;2023-07-02T05:14:22;6.87;;;3.30;;
16577;SDS011;8401;52.528;13.340;2023-07-02T05:16:48;4.97;;;3.07;;
16577;SDS011;8401;52.528;13.340;2023-07-02T05:19:14;5.67;;;3.03;;
16577;SDS011;8401;52.528;13.340;2023-07-02T05:21:40;5.30;;;3.53;;
16577;SDS011;8401;52.528;13.340;2023-07-02T05:24:07;5.70;;;3.17;;
16577;SDS011;8401;52.528;13.340;2023-07-02T05:26:33;4.37;;;2.93;;
16577;SDS011;8401;52.528;13.340;2023-07-02T05:28:59;4.83;;;3.07;;
16577;SDS011;8401;52.528;13.340;2023-07-02T05:31:24;3.37;;;2.60;;
16577;SDS011;8401;52.528;13.340;2023-07-02T05:33:50;9.40;;;3.33;;
16577;SDS011;8401;52.528;13.340;2023-07-02T05:36:16;3.40;;;3.00;;
16577;SDS011;8401;52.528;13.340;2023-07-02T05:38:42;3.77;;;2.80;;
16577;SDS011;8401;52.528;13.340;2023-07-02T05:41:07;3.87;;;2.73;;
16577;SDS011;8401;52.528;13.340;2023-07-02T05:43:33;2.87;;;2.67;;
16577;SDS011;8401;52.528;13.340;2023-07-02T05:45:59;6.17;;;3.00;;
16577;SDS011;8401;52.528;13.340;2023-07-02T05:48:28;4.23;;;2.97;;
16577;SDS011;8401;52.528;13.340;2023-07-02T05:50:53;4.00;;;2.80;;
16577;SDS011;8401;52.528;13.340;2023-07-02T05:53:20;4.30;;;2.73;;
16577;SDS011;8401;52.528;13.340;2023-07-02T05:55:45;5.67;;;3.07;;
16577;SDS011;8401;52.528;13.340;2023-07-02T05:58:12;6.13;;;3.00;;
16577;SDS011;8401;52.528;13.340;2023-07-02T06:00:37;3.90;;;2.80;;
16577;SDS011;8401;52.528;13.340;2023-07-02T06:03:06;6.33;;;2.87;;
16577;SDS011;8401;52.528;13.340;2023-07-02T06:05:32;4.50;;;3.10;;
16577;SDS011;8401;52.528;13.340;2023-07-02T06:07:58;3.37;;;2.53;;
16577;SDS011;8401;52.528;13.340;2023-07-02T06:10:23;3.57;;;2.70;;
16577;SDS011;8401;52.528;13.340;2023-07-02T06:12:49;5.23;;;2.77;;
16577;SDS011;8401;52.528;13.340;2023-07-02T06:15:14;5.53;;;2.90;;
16577;SDS011;8401;52.528;13.340;2023-07-02T06:17:40;4.60;;;2.58;;
16577;SDS011;8401;52.528;13.340;2023-07-02T06:20:06;5.70;;;3.03;;
16577;SDS011;8401;52.528;13.340;2023-07-02T06:22:32;4.60;;;3.00;;
16577;SDS011;8401;52.528;13.340;2023-07-02T06:24:58;4.80;;;2.50;;
16577;SDS011;8401;52.528;13.340;2023-07-02T06:27:24;3.85;;;2.55;;
16577;SDS011;8401;52.528;13.340;2023-07-02T06:29:49;6.43;;;3.88;;
16577;SDS011;8401;52.528;13.340;2023-07-02T06:32:16;5.80;;;3.15;;
16577;SDS011;8401;52.528;13.340;2023-07-02T06:34:42;6.68;;;2.75;;
16577;SDS011;8401;52.528;13.340;2023-07-02T06:37:08;5.95;;;2.95;;
16577;SDS011;8401;52.528;13.340;2023-07-02T06:39:33;5.00;;;2.88;;
16577;SDS011;8401;52.528;13.340;2023-07-02T06:41:59;5.00;;;2.08;;
16577;SDS011;8401;52.528;13.340;2023-07-02T06:44:25;5.20;;;2.92;;
16577;SDS011;8401;52.528;13.340;2023-07-02T06:46:50;5.40;;;3.55;;
16577;SDS011;8401;52.528;13.340;2023-07-02T06:49:16;5.88;;;2.45;;
16577;SDS011;8401;52.528;13.340;2023-07-02T06:51:42;5.93;;;2.67;;
16577;SDS011;8401;52.528;13.340;2023-07-02T06:54:07;5.10;;;2.63;;
16577;SDS011;8401;52.528;13.340;2023-07-02T06:56:33;6.68;;;2.92;;
16577;SDS011;8401;52.528;13.340;2023-07-02T06:58:59;3.75;;;2.33;;
16577;SDS011;8401;52.528;13.340;2023-07-02T07:01:26;5.55;;;3.40;;
16577;SDS011;8401;52.528;13.340;2023-07-02T07:03:52;7.03;;;3.42;;
16577;SDS011;8401;52.528;13.340;2023-07-02T07:06:17;6.18;;;3.17;;
16577;SDS011;8401;52.528;13.340;2023-07-02T07:08:43;6.72;;;2.60;;
16577;SDS011;8401;52.528;13.340;2023-07-02T07:11:09;4.95;;;2.97;;
16577;SDS011;8401;52.528;13.340;2023-07-02T07:13:34;5.47;;;2.80;;
16577;SDS011;8401;52.528;13.340;2023-07-02T07:16:00;4.53;;;3.00;;
16577;SDS011;8401;52.528;13.340;2023-07-02T07:18:26;4.10;;;3.28;;
16577;SDS011;8401;52.528;13.340;2023-07-02T07:20:51;3.35;;;2.38;;
16577;SDS011;8401;52.528;13.340;2023-07-02T07:23:17;3.90;;;2.70;;
16577;SDS011;8401;52.528;13.340;2023-07-02T07:25:43;4.10;;;2.85;;
16577;SDS011;8401;52.528;13.340;2023-07-02T07:28:09;4.35;;;2.85;;
16577;SDS011;8401;52.528;13.340;2023-07-02T07:30:40;4.00;;;2.90;;
16577;SDS011;8401;52.528;13.340;2023-07-02T07:33:09;5.43;;;3.10;;
16577;SDS011;8401;52.528;13.340;2023-07-02T07:35:35;4.80;;;2.88;;
16577;SDS011;8401;52.528;13.340;2023-07-02T07:38:01;5.60;;;2.97;;
16577;SDS011;8401;52.528;13.340;2023-07-02T07:40:27;5.38;;;3.22;;
16577;SDS011;8401;52.528;13.340;2023-07-02T07:42:52;6.32;;;2.95;;
16577;SDS011;8401;52.528;13.340;2023-07-02T07:45:18;5.05;;;3.08;;
16577;SDS011;8401;52.528;13.340;2023-07-02T07:47:44;5.35;;;3.20;;
16577;SDS011;8401;52.528;13.340;2023-07-02T07:50:09;3.05;;;2.53;;
16577;SDS011;8401;52.528;13.340;2023-07-02T07:52:38;4.25;;;3.13;;
16577;SDS011;8401;52.528;13.340;2023-07-02T07:55:05;4.57;;;2.83;;
16577;SDS011;8401;52.528;13.340;2023-07-02T07:57:31;5.00;;;2.90;;
16577;SDS011;8401;52.528;13.340;2023-07-02T07:59:57;4.97;;;2.70;;
16577;SDS011;8401;52.528;13.340;2023-07-02T08:02:23;4.55;;;2.53;;
16577;SDS011;8401;52.528;13.340;2023-07-02T08:04:48;5.95;;;2.90;;
16577;SDS011;8401;52.528;13.340;2023-07-02T08:07:14;5.43;;;2.70;;
16577;SDS011;8401;52.528;13.340;2023-07-02T08:09:40;4.82;;;3.10;;
16577;SDS011;8401;52.528;13.340;2023-07-02T08:12:06;4.75;;;3.00;;
16577;SDS011;8401;52.528;13.340;2023-07-02T08:14:32;4.57;;;3.10;;
16577;SDS011;8401;52.528;13.340;2023-07-02T08:17:00;3.58;;;3.17;;
16577;SDS011;8401;52.528;13.340;2023-07-02T08:19:25;4.72;;;2.95;;
16577;SDS011;8401;52.528;13.340;2023-07-02T08:21:51;5.03;;;3.10;;
16577;SDS011;8401;52.528;13.340;2023-07-02T08:24:17;8.00;;;3.33;;
16577;SDS011;8401;52.528;13.340;2023-07-02T08:26:43;7.97;;;3.40;;
16577;SDS011;8401;52.528;13.340;2023-07-02T08:29:09;4.60;;;3.53;;
16577;SDS011;8401;52.528;13.340;2023-07-02T08:31:35;4.68;;;3.33;;
16577;SDS011;8401;52.528;13.340;2023-07-02T08:34:01;5.43;;;3.05;;
16577;SDS011;8401;52.528;13.340;2023-07-02T08:36:27;3.33;;;2.70;;
16577;SDS011;8401;52.528;13.340;2023-07-02T08:38:53;4.85;;;3.20;;
16577;SDS011;8401;52.528;13.340;2023-07-02T08:41:20;4.32;;;3.17;;
16577;SDS011;8401;52.528;13.340;2023-07-02T08:43:47;6.30;;;3.20;;
16577;SDS011;8401;52.528;13.340;2023-07-02T08:46:14;6.38;;;3.33;;
16577;SDS011;8401;52.528;13.340;2023-07-02T08:48:41;6.38;;;3.88;;
16577;SDS011;8401;52.528;13.340;2023-07-02T08:51:07;4.95;;;3.20;;
16577;SDS011;8401;52.528;13.340;2023-07-02T08:53:33;3.70;;;2.78;;
16577;SDS011;8401;52.528;13.340;2023-07-02T08:55:59;6.00;;;3.33;;
16577;SDS011;8401;52.528;13.340;2023-07-02T08:58:26;4.75;;;3.20;;
16577;SDS011;8401;52.528;13.340;2023-07-02T09:01:04;4.22;;;3.13;;
16577;SDS011;8401;52.528;13.340;2023-07-02T09:03:31;4.40;;;3.38;;
16577;SDS011;8401;52.528;13.340;2023-07-02T09:05:57;5.47;;;3.42;;
16577;SDS011;8401;52.528;13.340;2023-07-02T09:08:26;6.05;;;3.60;;
16577;SDS011;8401;52.528;13.340;2023-07-02T09:10:53;5.50;;;3.88;;
16577;SDS011;8401;52.528;13.340;2023-07-02T09:13:19;8.00;;;4.00;;
16577;SDS011;8401;52.528;13.340;2023-07-02T09:15:45;7.50;;;3.85;;
16577;SDS011;8401;52.528;13.340;2023-07-02T09:20:46;7.68;;;3.67;;
16577;SDS011;8401;52.528;13.340;2023-07-02T09:23:15;4.85;;;3.40;;
16577;SDS011;8401;52.528;13.340;2023-07-02T09:25:41;5.95;;;3.95;;
16577;SDS011;8401;52.528;13.340;2023-07-02T09:28:22;5.68;;;3.97;;
16577;SDS011;8401;52.528;13.340;2023-07-02T09:30:49;6.70;;;4.32;;
16577;SDS011;8401;52.528;13.340;2023-07-02T09:33:16;6.80;;;3.72;;
16577;SDS011;8401;52.528;13.340;2023-07-02T09:35:42;6.82;;;4.40;;
16577;SDS011;8401;52.528;13.340;2023-07-02T09:38:09;5.97;;;3.78;;
16577;SDS011;8401;52.528;13.340;2023-07-02T09:40:37;6.65;;;4.03;;
16577;SDS011;8401;52.528;13.340;2023-07-02T09:43:10;8.00;;;4.38;;
16577;SDS011;8401;52.528;13.340;2023-07-02T09:45:36;7.10;;;4.32;;
16577;SDS011;8401;52.528;13.340;2023-07-02T09:48:03;7.80;;;4.45;;
16577;SDS011;8401;52.528;13.340;2023-07-02T09:50:31;8.38;;;4.90;;
16577;SDS011;8401;52.528;13.340;2023-07-02T09:52:57;8.07;;;4.60;;
16577;SDS011;8401;52.528;13.340;2023-07-02T09:55:23;7.43;;;5.18;;
16577;SDS011;8401;52.528;13.340;2023-07-02T09:57:49;7.75;;;4.85;;
16577;SDS011;8401;52.528;13.340;2023-07-02T10:00:15;8.88;;;4.65;;
16577;SDS011;8401;52.528;13.340;2023-07-02T10:02:41;11.90;;;5.63;;
16577;SDS011;8401;52.528;13.340;2023-07-02T10:05:22;11.13;;;5.38;;
16577;SDS011;8401;52.528;13.340;2023-07-02T10:07:57;9.95;;;5.47;;
16577;SDS011;8401;52.528;13.340;2023-07-02T10:10:30;9.55;;;5.10;;
16577;SDS011;8401;52.528;13.340;2023-07-02T10:12:57;9.48;;;5.10;;
16577;SDS011;8401;52.528;13.340;2023-07-02T10:15:27;10.82;;;5.25;;
16577;SDS011;8401;52.528;13.340;2023-07-02T10:17:54;10.85;;;5.28;;
16577;SDS011;8401;52.528;13.340;2023-07-02T10:20:38;10.32;;;5.38;;
16577;SDS011;8401;52.528;13.340;2023-07-02T10:23:05;9.82;;;5.40;;
16577;SDS011;8401;52.528;13.340;2023-07-02T10:25:33;9.02;;;5.63;;
16577;SDS011;8401;52.528;13.340;2023-07-02T10:28:12;12.02;;;5.55;;
16577;SDS011;8401;52.528;13.340;2023-07-02T10:30:39;12.48;;;5.57;;
16577;SDS011;8401;52.528;13.340;2023-07-02T10:33:12;9.70;;;5.35;;
16577;SDS011;8401;52.528;13.340;2023-07-02T10:35:43;9.32;;;5.15;;
16577;SDS011;8401;52.528;13.340;2023-07-02T10:38:17;10.85;;;5.50;;
16577;SDS011;8401;52.528;13.340;2023-07-02T10:40:43;10.52;;;5.45;;
16577;SDS011;8401;52.528;13.340;2023-07-02T10:43:09;8.55;;;4.78;;
16577;SDS011;8401;52.528;13.340;2023-07-02T10:45:35;8.82;;;5.30;;
16577;SDS011;8401;52.528;13.340;2023-07-02T10:48:08;10.50;;;5.20;;
16577;SDS011;8401;52.528;13.340;2023-07-02T10:50:34;8.82;;;5.22;;
16577;SDS011;8401;52.528;13.340;2023-07-02T10:53:00;9.55;;;5.40;;
16577;SDS011;8401;52.528;13.340;2023-07-02T10:55:26;12.38;;;5.53;;
16577;SDS011;8401;52.528;13.340;2023-07-02T10:58:03;9.88;;;5.40;;
16577;SDS011;8401;52.528;13.340;2023-07-02T11:00:32;12.60;;;5.78;;
16577;SDS011;8401;52.528;13.340;2023-07-02T11:02:58;12.80;;;5.32;;
16577;SDS011;8401;52.528;13.340;2023-07-02T11:05:24;10.30;;;5.38;;
16577;SDS011;8401;52.528;13.340;2023-07-02T11:07:51;11.32;;;5.03;;
16577;SDS011;8401;52.528;13.340;2023-07-02T11:10:22;10.13;;;5.15;;
16577;SDS011;8401;52.528;13.340;2023-07-02T11:12:48;11.02;;;5.70;;
16577;SDS011;8401;52.528;13.340;2023-07-02T11:15:14;8.70;;;5.57;;
16577;SDS011;8401;52.528;13.340;2023-07-02T11:17:42;9.27;;;5.22;;
16577;SDS011;8401;52.528;13.340;2023-07-02T11:20:08;12.00;;;6.10;;
16577;SDS011;8401;52.528;13.340;2023-07-02T11:22:35;12.20;;;6.57;;
16577;SDS011;8401;52.528;13.340;2023-07-02T11:25:08;14.95;;;5.93;;
16577;SDS011;8401;52.528;13.340;2023-07-02T11:27:35;16.08;;;6.28;;
16577;SDS011;8401;52.528;13.340;2023-07-02T11:30:00;9.82;;;5.82;;
16577;SDS011;8401;52.528;13.340;2023-07-02T11:32:26;10.57;;;5.65;;
16577;SDS011;8401;52.528;13.340;2023-07-02T11:34:55;12.48;;;5.90;;
16577;SDS011;8401;52.528;13.340;2023-07-02T11:37:21;15.82;;;6.30;;
16577;SDS011;8401;52.528;13.340;2023-07-02T11:39:47;9.85;;;6.03;;
16577;SDS011;8401;52.528;13.340;2023-07-02T11:42:13;9.65;;;5.65;;
16577;SDS011;8401;52.528;13.340;2023-07-02T11:44:39;10.27;;;5.72;;
16577;SDS011;8401;52.528;13.340;2023-07-02T11:47:05;11.68;;;5.55;;
16577;SDS011;8401;52.528;13.340;2023-07-02T11:49:31;9.35;;;5.75;;
16577;SDS011;8401;52.528;13.340;2023-07-02T11:51:57;11.18;;;5.97;;
16577;SDS011;8401;52.528;13.340;2023-07-02T11:54:22;10.90;;;5.70;;
16577;SDS011;8401;52.528;13.340;2023-07-02T11:56:48;10.25;;;6.10;;
16577;SDS011;8401;52.528;13.340;2023-07-02T11:59:14;8.88;;;5.28;;
16577;SDS011;8401;52.528;13.340;2023-07-02T12:01:39;10.18;;;5.50;;
16577;SDS011;8401;52.528;13.340;2023-07-02T12:04:05;9.70;;;5.65;;
16577;SDS011;8401;52.528;13.340;2023-07-02T12:06:32;10.93;;;6.07;;
16577;SDS011;8401;52.528;13.340;2023-07-02T12:08:58;13.45;;;5.40;;
16577;SDS011;8401;52.528;13.340;2023-07-02T12:11:24;9.30;;;5.82;;
16577;SDS011;8401;52.528;13.340;2023-07-02T12:13:50;10.15;;;5.45;;
16577;SDS011;8401;52.528;13.340;2023-07-02T12:16:15;10.65;;;5.80;;
16577;SDS011;8401;52.528;13.340;2023-07-02T12:18:41;10.50;;;5.03;;
16577;SDS011;8401;52.528;13.340;2023-07-02T12:21:06;13.05;;;5.22;;
16577;SDS011;8401;52.528;13.340;2023-07-02T12:23:32;9.85;;;5.45;;
16577;SDS011;8401;52.528;13.340;2023-07-02T12:25:58;12.95;;;5.90;;
16577;SDS011;8401;52.528;13.340;2023-07-02T12:28:23;8.98;;;5.47;;
16577;SDS011;8401;52.528;13.340;2023-07-02T12:30:49;11.18;;;6.00;;
16577;SDS011;8401;52.528;13.340;2023-07-02T12:33:15;8.35;;;5.80;;
16577;SDS011;8401;52.528;13.340;2023-07-02T12:35:40;11.20;;;5.35;;
16577;SDS011;8401;52.528;13.340;2023-07-02T12:38:06;9.82;;;5.60;;
16577;SDS011;8401;52.528;13.340;2023-07-02T12:40:33;11.57;;;5.20;;
16577;SDS011;8401;52.528;13.340;2023-07-02T12:42:59;10.00;;;5.70;;
16577;SDS011;8401;52.528;13.340;2023-07-02T12:45:24;10.07;;;5.38;;
16577;SDS011;8401;52.528;13.340;2023-07-02T12:47:50;9.88;;;5.85;;
16577;SDS011;8401;52.528;13.340;2023-07-02T12:50:15;8.52;;;5.40;;
16577;SDS011;8401;52.528;13.340;2023-07-02T12:52:41;12.35;;;5.93;;
16577;SDS011;8401;52.528;13.340;2023-07-02T12:55:07;12.93;;;6.63;;
16577;SDS011;8401;52.528;13.340;2023-07-02T12:57:33;9.50;;;5.20;;
16577;SDS011;8401;52.528;13.340;2023-07-02T12:59:59;14.60;;;5.78;;
16577;SDS011;8401;52.528;13.340;2023-07-02T13:02:25;10.32;;;5.80;;
16577;SDS011;8401;52.528;13.340;2023-07-02T13:04:50;13.20;;;6.18;;
16577;SDS011;8401;52.528;13.340;2023-07-02T13:07:17;10.07;;;6.03;;
16577;SDS011;8401;52.528;13.340;2023-07-02T13:09:43;11.52;;;6.03;;
16577;SDS011;8401;52.528;13.340;2023-07-02T13:12:10;10.38;;;5.75;;
16577;SDS011;8401;52.528;13.340;2023-07-02T13:14:36;9.73;;;5.72;;
16577;SDS011;8401;52.528;13.340;2023-07-02T13:17:02;11.63;;;5.78;;
16577;SDS011;8401;52.528;13.340;2023-07-02T13:19:30;12.57;;;5.57;;
16577;SDS011;8401;52.528;13.340;2023-07-02T13:21:56;10.95;;;5.85;;
16577;SDS011;8401;52.528;13.340;2023-07-02T13:24:21;9.82;;;5.53;;
16577;SDS011;8401;52.528;13.340;2023-07-02T13:26:47;12.82;;;5.57;;
16577;SDS011;8401;52.528;13.340;2023-07-02T13:29:13;11.32;;;6.35;;
16577;SDS011;8401;52.528;13.340;2023-07-02T13:31:39;9.27;;;5.68;;
16577;SDS011;8401;52.528;13.340;2023-07-02T13:34:05;12.45;;;6.32;;
16577;SDS011;8401;52.528;13.340;2023-07-02T13:36:31;9.27;;;5.50;;
16577;SDS011;8401;52.528;13.340;2023-07-02T13:38:56;12.88;;;6.50;;
16577;SDS011;8401;52.528;13.340;2023-07-02T13:41:22;11.25;;;5.95;;
16577;SDS011;8401;52.528;13.340;2023-07-02T13:43:48;11.75;;;6.30;;
16577;SDS011;8401;52.528;13.340;2023-07-02T13:46:13;12.25;;;6.05;;
16577;SDS011;8401;52.528;13.340;2023-07-02T13:48:39;10.40;;;5.38;;
16577;SDS011;8401;52.528;13.340;2023-07-02T13:51:04;9.27;;;5.18;;
16577;SDS011;8401;52.528;13.340;2023-07-02T13:53:30;11.25;;;5.72;;
16577;SDS011;8401;52.528;13.340;2023-07-02T13:55:57;10.27;;;5.85;;
16577;SDS011;8401;52.528;13.340;2023-07-02T13:58:23;9.57;;;5.60;;
16577;SDS011;8401;52.528;13.340;2023-07-02T14:00:48;14.55;;;6.40;;
16577;SDS011;8401;52.528;13.340;2023-07-02T14:03:14;12.52;;;6.15;;
16577;SDS011;8401;52.528;13.340;2023-07-02T14:05:40;13.00;;;6.20;;
16577;SDS011;8401;52.528;13.340;2023-07-02T14:08:05;8.30;;;5.15;;
16577;SDS011;8401;52.528;13.340;2023-07-02T14:10:31;8.93;;;5.97;;
16577;SDS011;8401;52.528;13.340;2023-07-02T14:12:57;11.88;;;5.93;;
16577;SDS011;8401;52.528;13.340;2023-07-02T14:15:24;8.07;;;5.20;;
16577;SDS011;8401;52.528;13.340;2023-07-02T14:17:50;11.80;;;5.38;;
16577;SDS011;8401;52.528;13.340;2023-07-02T14:20:15;11.80;;;6.13;;
16577;SDS011;8401;52.528;13.340;2023-07-02T14:22:41;10.93;;;5.70;;
16577;SDS011;8401;52.528;13.340;2023-07-02T14:25:07;11.48;;;5.53;;
16577;SDS011;8401;52.528;13.340;2023-07-02T14:27:33;10.85;;;6.13;;
16577;SDS011;8401;52.528;13.340;2023-07-02T14:29:59;10.18;;;5.55;;
16577;SDS011;8401;52.528;13.340;2023-07-02T14:32:25;9.63;;;5.10;;
16577;SDS011;8401;52.528;13.340;2023-07-02T14:34:51;9.23;;;5.47;;
16577;SDS011;8401;52.528;13.340;2023-07-02T14:37:17;7.65;;;4.90;;
16577;SDS011;8401;52.528;13.340;2023-07-02T14:39:42;10.75;;;5.57;;
16577;SDS011;8401;52.528;13.340;2023-07-02T14:42:08;8.35;;;5.28;;
16577;SDS011;8401;52.528;13.340;2023-07-02T14:44:34;8.10;;;5.20;;